sensor_id;sensor_type;location;lat;lon;timestamp;pressure;altitude;pressure_sealevel;temperature;humidity
22104;BME280;11218;48.886;9.426;2023-05-20T00:00:33;98104.34;;;12.43;75.81
22104;BME280;11218;48.886;9.426;2023-05-20T00:03:02;98096.78;;;12.45;76.20
22104;BME280;11218;48.886;9.426;2023-05-20T00:05:30;98108.41;;;12.46;76.24
22104;BME280;11218;48.886;9.426;2023-05-20T00:07:59;98102.69;;;12.42;75.83
22104;BME280;11218;48.886;9.426;2023-05-20T00:10:31;98103.78;;;12.41;76.45
22104;BME280;11218;48.886;9.426;2023-05-20T00:12:59;98101.91;;;12.42;75.44
22104;BME280;11218;48.886;9.426;2023-05-20T00:15:28;98094.56;;;12.37;76.06
22104;BME280;11218;48.886;9.426;2023-05-20T00:17:56;98095.66;;;12.36;76.75
22104;BME280;11218;48.886;9.426;2023-05-20T00:20:24;98100.78;;;12.38;77.07
22104;BME280;11218;48.886;9.426;2023-05-20T00:22:52;98097.00;;;12.39;75.91
22104;BME280;11218;48.886;9.426;2023-05-20T00:25:20;98092.44;;;12.39;76.58
22104;BME280;11218;48.886;9.426;2023-05-20T00:27:50;98089.72;;;12.39;76.58
22104;BME280;11218;48.886;9.426;2023-05-20T00:30:19;98090.53;;;12.40;76.50
22104;BME280;11218;48.886;9.426;2023-05-20T00:32:47;98086.75;;;12.41;76.67
22104;BME280;11218;48.886;9.426;2023-05-20T00:35:15;98088.91;;;12.39;76.58
22104;BME280;11218;48.886;9.426;2023-05-20T00:37:43;98084.84;;;12.36;77.24
22104;BME280;11218;48.886;9.426;2023-05-20T00:40:12;98074.81;;;12.32;77.01
22104;BME280;11218;48.886;9.426;2023-05-20T00:42:41;98085.06;;;12.30;77.13
22104;BME280;11218;48.886;9.426;2023-05-20T00:45:11;98075.09;;;12.30;77.37
22104;BME280;11218;48.886;9.426;2023-05-20T00:47:41;98083.19;;;12.30;77.87
22104;BME280;11218;48.886;9.426;2023-05-20T00:50:10;98084.00;;;12.31;77.18
22104;BME280;11218;48.886;9.426;2023-05-20T00:52:38;98083.75;;;12.32;77.25
22104;BME280;11218;48.886;9.426;2023-05-20T00:55:07;98082.66;;;12.33;77.46
22104;BME280;11218;48.886;9.426;2023-05-20T00:57:36;98086.16;;;12.29;77.96
22104;BME280;11218;48.886;9.426;2023-05-20T01:00:06;98077.50;;;12.27;78.39
22104;BME280;11218;48.886;9.426;2023-05-20T01:02:37;98077.50;;;12.27;78.55
22104;BME280;11218;48.886;9.426;2023-05-20T01:05:06;98082.66;;;12.33;78.13
22104;BME280;11218;48.886;9.426;2023-05-20T01:07:37;98072.69;;;12.34;78.89
22104;BME280;11218;48.886;9.426;2023-05-20T01:10:06;98079.19;;;12.38;78.62
22104;BME280;11218;48.886;9.426;2023-05-20T01:12:38;98068.69;;;12.41;78.69
22104;BME280;11218;48.886;9.426;2023-05-20T01:15:11;98070.59;;;12.46;80.00
22104;BME280;11218;48.886;9.426;2023-05-20T01:17:43;98075.50;;;12.54;79.67
22104;BME280;11218;48.886;9.426;2023-05-20T01:20:13;98065.81;;;12.63;80.14
22104;BME280;11218;48.886;9.426;2023-05-20T01:22:52;98066.91;;;12.67;79.46
22104;BME280;11218;48.886;9.426;2023-05-20T01:25:20;98059.66;;;12.73;79.51
22104;BME280;11218;48.886;9.426;2023-05-20T01:27:51;98058.84;;;12.77;79.12
22104;BME280;11218;48.886;9.426;2023-05-20T01:30:21;98059.97;;;12.81;78.42
22104;BME280;11218;48.886;9.426;2023-05-20T01:32:53;98053.47;;;12.82;79.59
22104;BME280;11218;48.886;9.426;2023-05-20T01:35:22;98054.03;;;12.84;79.48
22104;BME280;11218;48.886;9.426;2023-05-20T01:37:53;98051.31;;;12.84;79.17
22104;BME280;11218;48.886;9.426;2023-05-20T01:40:23;98054.28;;;12.83;79.96
22104;BME280;11218;48.886;9.426;2023-05-20T01:42:54;98049.69;;;12.83;79.21
22104;BME280;11218;48.886;9.426;2023-05-20T01:45:23;98051.03;;;12.81;79.72
22104;BME280;11218;48.886;9.426;2023-05-20T01:47:51;98054.56;;;12.81;79.70
22104;BME280;11218;48.886;9.426;2023-05-20T01:50:20;98051.03;;;12.76;79.43
22104;BME280;11218;48.886;9.426;2023-05-20T01:52:48;98051.56;;;12.78;78.93
22104;BME280;11218;48.886;9.426;2023-05-20T01:55:21;98048.59;;;12.74;78.94
22104;BME280;11218;48.886;9.426;2023-05-20T01:57:50;98058.31;;;12.75;79.41
22104;BME280;11218;48.886;9.426;2023-05-20T02:00:18;98052.34;;;12.73;79.35
22104;BME280;11218;48.886;9.426;2023-05-20T02:02:47;98061.53;;;12.72;80.25
22104;BME280;11218;48.886;9.426;2023-05-20T02:05:15;98055.59;;;12.75;79.54
22104;BME280;11218;48.886;9.426;2023-05-20T02:07:43;98058.03;;;12.72;80.12
22104;BME280;11218;48.886;9.426;2023-05-20T02:10:11;98056.69;;;12.74;79.37
22104;BME280;11218;48.886;9.426;2023-05-20T02:12:41;98052.34;;;12.73;80.05
22104;BME280;11218;48.886;9.426;2023-05-20T02:15:10;98045.34;;;12.72;80.36
22104;BME280;11218;48.886;9.426;2023-05-20T02:17:38;98039.66;;;12.74;79.68
22104;BME280;11218;48.886;9.426;2023-05-20T02:20:10;98042.38;;;12.74;80.09
22104;BME280;11218;48.886;9.426;2023-05-20T02:22:39;98039.63;;;12.69;80.62
22104;BME280;11218;48.886;9.426;2023-05-20T02:25:08;98041.28;;;12.70;80.06
22104;BME280;11218;48.886;9.426;2023-05-20T02:27:37;98047.47;;;12.65;80.00
22104;BME280;11218;48.886;9.426;2023-05-20T02:30:08;98046.09;;;12.63;79.87
22104;BME280;11218;48.886;9.426;2023-05-20T02:32:36;98041.78;;;12.62;79.64
22104;BME280;11218;48.886;9.426;2023-05-20T02:35:05;98046.38;;;12.61;79.02
22104;BME280;11218;48.886;9.426;2023-05-20T02:37:34;98043.41;;;12.58;79.11
22104;BME280;11218;48.886;9.426;2023-05-20T02:40:05;98046.91;;;12.58;79.09
22104;BME280;11218;48.886;9.426;2023-05-20T02:42:35;98043.38;;;12.53;79.54
22104;BME280;11218;48.886;9.426;2023-05-20T02:45:04;98046.59;;;12.49;80.34
22104;BME280;11218;48.886;9.426;2023-05-20T02:47:34;98040.38;;;12.49;79.95
22104;BME280;11218;48.886;9.426;2023-05-20T02:50:03;98034.97;;;12.49;79.78
22104;BME280;11218;48.886;9.426;2023-05-20T02:52:31;98040.34;;;12.44;80.38
22104;BME280;11218;48.886;9.426;2023-05-20T02:54:59;98040.88;;;12.41;79.83
22104;BME280;11218;48.886;9.426;2023-05-20T02:57:27;98038.97;;;12.36;79.85
22104;BME280;11218;48.886;9.426;2023-05-20T02:59:56;98047.06;;;12.36;80.27
22104;BME280;11218;48.886;9.426;2023-05-20T03:02:24;98044.34;;;12.36;80.05
22104;BME280;11218;48.886;9.426;2023-05-20T03:04:54;98047.31;;;12.35;80.40
22104;BME280;11218;48.886;9.426;2023-05-20T03:07:22;98042.69;;;12.30;80.19
22104;BME280;11218;48.886;9.426;2023-05-20T03:09:50;98044.31;;;12.31;80.21
22104;BME280;11218;48.886;9.426;2023-05-20T03:12:19;98051.59;;;12.31;80.16
22104;BME280;11218;48.886;9.426;2023-05-20T03:14:47;98052.69;;;12.30;80.45
22104;BME280;11218;48.886;9.426;2023-05-20T03:17:16;98042.41;;;12.27;80.80
22104;BME280;11218;48.886;9.426;2023-05-20T03:19:44;98049.44;;;12.28;80.47
22104;BME280;11218;48.886;9.426;2023-05-20T03:22:14;98048.63;;;12.27;81.05
22104;BME280;11218;48.886;9.426;2023-05-20T03:24:42;98045.09;;;12.27;80.94
22104;BME280;11218;48.886;9.426;2023-05-20T03:27:11;98036.47;;;12.25;80.98
22104;BME280;11218;48.886;9.426;2023-05-20T03:29:40;98029.72;;;12.27;80.19
22104;BME280;11218;48.886;9.426;2023-05-20T03:32:09;98042.16;;;12.28;80.72
22104;BME280;11218;48.886;9.426;2023-05-20T03:34:38;98031.59;;;12.27;80.74
22104;BME280;11218;48.886;9.426;2023-05-20T03:37:07;98030.50;;;12.23;81.51
22104;BME280;11218;48.886;9.426;2023-05-20T03:39:37;98036.16;;;12.21;81.24
22104;BME280;11218;48.886;9.426;2023-05-20T03:42:06;98041.81;;;12.20;82.30
22104;BME280;11218;48.886;9.426;2023-05-20T03:44:35;98036.41;;;12.20;81.80
22104;BME280;11218;48.886;9.426;2023-05-20T03:47:04;98046.16;;;12.21;82.08
22104;BME280;11218;48.886;9.426;2023-05-20T03:49:33;98048.59;;;12.22;82.37
22104;BME280;11218;48.886;9.426;2023-05-20T03:52:02;98047.00;;;12.26;81.17
22104;BME280;11218;48.886;9.426;2023-05-20T03:54:30;98049.69;;;12.26;82.69
22104;BME280;11218;48.886;9.426;2023-05-20T03:57:00;98049.44;;;12.28;82.21
22104;BME280;11218;48.886;9.426;2023-05-20T03:59:30;98056.19;;;12.30;82.05
22104;BME280;11218;48.886;9.426;2023-05-20T04:01:58;98051.59;;;12.31;82.50
22104;BME280;11218;48.886;9.426;2023-05-20T04:04:26;98054.31;;;12.31;82.21
22104;BME280;11218;48.886;9.426;2023-05-20T04:06:54;98049.47;;;12.33;82.20
22104;BME280;11218;48.886;9.426;2023-05-20T04:09:24;98050.53;;;12.32;82.14
22104;BME280;11218;48.886;9.426;2023-05-20T04:11:53;98047.56;;;12.33;82.10
22104;BME280;11218;48.886;9.426;2023-05-20T04:14:23;98049.19;;;12.34;81.66
22104;BME280;11218;48.886;9.426;2023-05-20T04:16:51;98043.53;;;12.36;82.23
22104;BME280;11218;48.886;9.426;2023-05-20T04:19:20;98044.91;;;12.38;81.74
22104;BME280;11218;48.886;9.426;2023-05-20T04:21:49;98042.75;;;12.40;81.58
22104;BME280;11218;48.886;9.426;2023-05-20T04:24:18;98044.94;;;12.43;81.71
22104;BME280;11218;48.886;9.426;2023-05-20T04:26:50;98056.59;;;12.49;82.01
22104;BME280;11218;48.886;9.426;2023-05-20T04:29:18;98050.91;;;12.50;81.56
22104;BME280;11218;48.886;9.426;2023-05-20T04:31:48;98053.66;;;12.56;81.40
22104;BME280;11218;48.886;9.426;2023-05-20T04:34:17;98050.69;;;12.57;81.90
22104;BME280;11218;48.886;9.426;2023-05-20T04:36:53;98047.47;;;12.60;81.47
22104;BME280;11218;48.886;9.426;2023-05-20T04:39:23;98045.56;;;12.66;81.58
22104;BME280;11218;48.886;9.426;2023-05-20T04:41:52;98034.25;;;12.69;81.32
22104;BME280;11218;48.886;9.426;2023-05-20T04:44:21;98035.63;;;12.76;81.01
22104;BME280;11218;48.886;9.426;2023-05-20T04:46:51;98035.09;;;12.79;81.07
22104;BME280;11218;48.886;9.426;2023-05-20T04:49:19;98035.13;;;12.84;81.18
22104;BME280;11218;48.886;9.426;2023-05-20T04:51:48;98037.03;;;12.89;81.29
22104;BME280;11218;48.886;9.426;2023-05-20T04:54:17;98037.59;;;12.96;81.93
22104;BME280;11218;48.886;9.426;2023-05-20T04:56:46;98035.72;;;13.02;81.32
22104;BME280;11218;48.886;9.426;2023-05-20T04:59:14;98037.63;;;13.06;81.97
22104;BME280;11218;48.886;9.426;2023-05-20T05:01:43;98024.94;;;13.07;81.78
22104;BME280;11218;48.886;9.426;2023-05-20T05:04:13;98024.94;;;13.12;81.95
22104;BME280;11218;48.886;9.426;2023-05-20T05:06:42;98035.00;;;13.17;82.05
22104;BME280;11218;48.886;9.426;2023-05-20T05:09:10;98030.41;;;13.22;81.62
22104;BME280;11218;48.886;9.426;2023-05-20T05:11:39;98030.41;;;13.22;81.45
22104;BME280;11218;48.886;9.426;2023-05-20T05:14:07;98026.09;;;13.26;82.00
22104;BME280;11218;48.886;9.426;2023-05-20T05:16:35;98023.13;;;13.28;81.58
22104;BME280;11218;48.886;9.426;2023-05-20T05:19:03;98020.97;;;13.30;82.36
22104;BME280;11218;48.886;9.426;2023-05-20T05:21:33;98020.44;;;13.33;81.90
22104;BME280;11218;48.886;9.426;2023-05-20T05:24:02;98020.16;;;13.34;82.12
22104;BME280;11218;48.886;9.426;2023-05-20T05:26:30;98018.00;;;13.36;81.86
22104;BME280;11218;48.886;9.426;2023-05-20T05:28:58;98024.75;;;13.39;81.57
22104;BME280;11218;48.886;9.426;2023-05-20T05:31:26;98015.00;;;13.43;81.66
22104;BME280;11218;48.886;9.426;2023-05-20T05:33:55;98015.56;;;13.45;81.95
22104;BME280;11218;48.886;9.426;2023-05-20T05:36:23;98016.09;;;13.47;81.76
22104;BME280;11218;48.886;9.426;2023-05-20T05:38:54;98009.34;;;13.49;81.61
22104;BME280;11218;48.886;9.426;2023-05-20T05:41:22;98006.09;;;13.53;82.00
22104;BME280;11218;48.886;9.426;2023-05-20T05:43:51;97995.00;;;13.59;81.41
22104;BME280;11218;48.886;9.426;2023-05-20T05:46:19;98002.31;;;13.64;81.67
22104;BME280;11218;48.886;9.426;2023-05-20T05:48:47;97998.25;;;13.71;81.24
22104;BME280;11218;48.886;9.426;2023-05-20T05:51:16;97998.81;;;13.78;81.63
22104;BME280;11218;48.886;9.426;2023-05-20T05:53:45;97992.31;;;13.85;81.01
22104;BME280;11218;48.886;9.426;2023-05-20T05:56:14;98001.78;;;13.92;80.66
22104;BME280;11218;48.886;9.426;2023-05-20T05:58:43;98005.81;;;14.00;80.73
22104;BME280;11218;48.886;9.426;2023-05-20T06:01:11;98009.28;;;14.15;79.58
22104;BME280;11218;48.886;9.426;2023-05-20T06:03:39;98003.06;;;14.20;79.58
22104;BME280;11218;48.886;9.426;2023-05-20T06:06:07;97999.78;;;14.33;78.14
22104;BME280;11218;48.886;9.426;2023-05-20T06:08:35;98001.13;;;14.36;78.92
22104;BME280;11218;48.886;9.426;2023-05-20T06:11:04;97997.34;;;14.42;79.29
22104;BME280;11218;48.886;9.426;2023-05-20T06:13:34;97997.59;;;14.51;78.81
22104;BME280;11218;48.886;9.426;2023-05-20T06:16:03;98003.25;;;14.59;78.41
22104;BME280;11218;48.886;9.426;2023-05-20T06:18:31;97997.81;;;14.69;77.10
22104;BME280;11218;48.886;9.426;2023-05-20T06:20:59;97999.69;;;14.74;77.35
22104;BME280;11218;48.886;9.426;2023-05-20T06:23:27;97987.22;;;14.78;77.06
22104;BME280;11218;48.886;9.426;2023-05-20T06:25:57;97986.09;;;14.84;77.37
22104;BME280;11218;48.886;9.426;2023-05-20T06:28:26;97976.25;;;14.93;77.13
22104;BME280;11218;48.886;9.426;2023-05-20T06:30:56;97981.88;;;15.07;77.34
22104;BME280;11218;48.886;9.426;2023-05-20T06:33:25;97971.25;;;15.16;76.64
22104;BME280;11218;48.886;9.426;2023-05-20T06:35:55;97979.31;;;15.26;76.31
22104;BME280;11218;48.886;9.426;2023-05-20T06:38:23;97974.13;;;15.34;76.06
22104;BME280;11218;48.886;9.426;2023-05-20T06:40:52;97969.44;;;15.45;75.88
22104;BME280;11218;48.886;9.426;2023-05-20T06:43:21;97969.16;;;15.47;74.67
22104;BME280;11218;48.886;9.426;2023-05-20T06:45:50;97975.88;;;15.54;74.75
22104;BME280;11218;48.886;9.426;2023-05-20T06:48:19;97966.28;;;15.67;73.44
22104;BME280;11218;48.886;9.426;2023-05-20T06:50:48;97964.31;;;15.72;74.08
22104;BME280;11218;48.886;9.426;2023-05-20T06:53:16;97966.72;;;15.79;73.56
22104;BME280;11218;48.886;9.426;2023-05-20T06:55:44;97971.03;;;15.80;73.30
22104;BME280;11218;48.886;9.426;2023-05-20T06:58:12;97974.44;;;15.96;73.40
22104;BME280;11218;48.886;9.426;2023-05-20T07:00:40;97970.00;;;16.05;72.93
22104;BME280;11218;48.886;9.426;2023-05-20T07:03:08;97968.63;;;16.07;72.98
22104;BME280;11218;48.886;9.426;2023-05-20T07:05:39;97962.69;;;16.29;71.27
22104;BME280;11218;48.886;9.426;2023-05-20T07:08:07;97966.94;;;16.35;71.22
22104;BME280;11218;48.886;9.426;2023-05-20T07:10:36;97966.47;;;16.52;71.66
22104;BME280;11218;48.886;9.426;2023-05-20T07:13:04;97953.03;;;16.66;70.48
22104;BME280;11218;48.886;9.426;2023-05-20T07:15:32;97962.81;;;16.67;69.62
22104;BME280;11218;48.886;9.426;2023-05-20T07:18:01;97962.81;;;16.67;69.82
22104;BME280;11218;48.886;9.426;2023-05-20T07:20:29;97952.25;;;16.60;69.93
22104;BME280;11218;48.886;9.426;2023-05-20T07:22:59;97944.75;;;16.76;70.39
22104;BME280;11218;48.886;9.426;2023-05-20T07:25:29;97942.38;;;16.69;69.80
22104;BME280;11218;48.886;9.426;2023-05-20T07:27:58;97947.81;;;16.69;70.50
22104;BME280;11218;48.886;9.426;2023-05-20T07:30:26;97946.72;;;16.70;70.59
22104;BME280;11218;48.886;9.426;2023-05-20T07:32:54;97944.75;;;16.76;69.78
22104;BME280;11218;48.886;9.426;2023-05-20T07:35:23;97944.16;;;16.79;69.80
22104;BME280;11218;48.886;9.426;2023-05-20T07:37:51;97946.94;;;16.74;69.48
22104;BME280;11218;48.886;9.426;2023-05-20T07:40:21;97943.72;;;16.72;69.38
22104;BME280;11218;48.886;9.426;2023-05-20T07:42:49;97939.09;;;16.72;69.76
22104;BME280;11218;48.886;9.426;2023-05-20T07:45:18;97941.00;;;16.72;70.59
22104;BME280;11218;48.886;9.426;2023-05-20T07:47:46;97939.97;;;16.68;69.28
22104;BME280;11218;48.886;9.426;2023-05-20T07:50:14;97938.06;;;16.63;69.22
22104;BME280;11218;48.886;9.426;2023-05-20T07:52:42;97929.66;;;16.65;69.58
22104;BME280;11218;48.886;9.426;2023-05-20T07:55:23;97930.41;;;16.70;69.91
22104;BME280;11218;48.886;9.426;2023-05-20T07:57:51;97919.81;;;16.69;69.73
22104;BME280;11218;48.886;9.426;2023-05-20T08:00:19;97925.72;;;16.76;68.83
22104;BME280;11218;48.886;9.426;2023-05-20T08:02:48;97930.19;;;16.67;69.63
22104;BME280;11218;48.886;9.426;2023-05-20T08:05:16;97918.66;;;16.75;69.01
22104;BME280;11218;48.886;9.426;2023-05-20T08:07:44;97896.09;;;16.74;69.27
22104;BME280;11218;48.886;9.426;2023-05-20T08:10:13;97904.84;;;16.90;69.65
22104;BME280;11218;48.886;9.426;2023-05-20T08:12:42;97916.91;;;17.03;68.25
22104;BME280;11218;48.886;9.426;2023-05-20T08:15:11;97914.59;;;17.10;68.46
22104;BME280;11218;48.886;9.426;2023-05-20T08:17:39;97920.09;;;17.24;67.16
22104;BME280;11218;48.886;9.426;2023-05-20T08:20:08;97914.38;;;17.25;67.16
22104;BME280;11218;48.886;9.426;2023-05-20T08:22:38;97918.41;;;17.28;67.02
22104;BME280;11218;48.886;9.426;2023-05-20T08:25:08;97916.50;;;17.28;67.09
22104;BME280;11218;48.886;9.426;2023-05-20T08:27:36;97922.03;;;17.56;66.92
22104;BME280;11218;48.886;9.426;2023-05-20T08:30:11;97924.03;;;17.69;67.42
22104;BME280;11218;48.886;9.426;2023-05-20T08:32:39;97927.28;;;17.85;67.24
22104;BME280;11218;48.886;9.426;2023-05-20T08:35:08;97928.91;;;17.99;66.59
22104;BME280;11218;48.886;9.426;2023-05-20T08:37:36;97925.06;;;18.00;64.54
22104;BME280;11218;48.886;9.426;2023-05-20T08:40:05;97916.00;;;18.05;64.20
22104;BME280;11218;48.886;9.426;2023-05-20T08:42:35;97916.91;;;18.14;64.64
22104;BME280;11218;48.886;9.426;2023-05-20T08:45:04;97921.56;;;18.27;63.80
22104;BME280;11218;48.886;9.426;2023-05-20T08:47:34;97915.19;;;18.73;62.66
22104;BME280;11218;48.886;9.426;2023-05-20T08:50:03;97911.94;;;18.85;62.75
22104;BME280;11218;48.886;9.426;2023-05-20T08:52:33;97917.69;;;18.83;61.08
22104;BME280;11218;48.886;9.426;2023-05-20T08:55:03;97920.72;;;18.82;61.77
22104;BME280;11218;48.886;9.426;2023-05-20T08:57:33;97912.84;;;18.80;61.24
22104;BME280;11218;48.886;9.426;2023-05-20T09:00:03;97911.47;;;18.69;62.49
22104;BME280;11218;48.886;9.426;2023-05-20T09:02:38;97906.19;;;18.73;61.83
22104;BME280;11218;48.886;9.426;2023-05-20T09:05:07;97911.22;;;18.93;61.62
22104;BME280;11218;48.886;9.426;2023-05-20T09:07:37;97902.19;;;19.06;61.48
22104;BME280;11218;48.886;9.426;2023-05-20T09:10:06;97902.50;;;19.49;59.38
22104;BME280;11218;48.886;9.426;2023-05-20T09:12:35;97890.75;;;19.49;58.87
22104;BME280;11218;48.886;9.426;2023-05-20T09:15:05;97898.41;;;19.38;59.83
22104;BME280;11218;48.886;9.426;2023-05-20T09:17:34;97890.97;;;19.30;60.36
22104;BME280;11218;48.886;9.426;2023-05-20T09:20:07;97895.94;;;19.28;60.00
22104;BME280;11218;48.886;9.426;2023-05-20T09:22:35;97902.69;;;19.30;59.06
22104;BME280;11218;48.886;9.426;2023-05-20T09:25:06;97896.72;;;19.06;59.93
22104;BME280;11218;48.886;9.426;2023-05-20T09:27:35;97899.94;;;19.08;61.01
22104;BME280;11218;48.886;9.426;2023-05-20T09:30:06;97897.09;;;19.13;60.99
22104;BME280;11218;48.886;9.426;2023-05-20T09:32:34;97886.16;;;19.35;59.69
22104;BME280;11218;48.886;9.426;2023-05-20T09:35:06;97885.75;;;19.64;59.04
22104;BME280;11218;48.886;9.426;2023-05-20T09:37:35;97885.41;;;19.88;57.42
22104;BME280;11218;48.886;9.426;2023-05-20T09:40:05;97877.38;;;19.92;57.66
22104;BME280;11218;48.886;9.426;2023-05-20T09:42:39;97890.34;;;20.17;57.91
22104;BME280;11218;48.886;9.426;2023-05-20T09:45:09;97881.00;;;20.58;56.78
22104;BME280;11218;48.886;9.426;2023-05-20T09:47:38;97881.19;;;20.96;55.29
22104;BME280;11218;48.886;9.426;2023-05-20T09:50:08;97877.03;;;21.33;53.22
22104;BME280;11218;48.886;9.426;2023-05-20T09:52:38;97884.13;;;21.25;52.87
22104;BME280;11218;48.886;9.426;2023-05-20T09:55:08;97883.63;;;21.32;52.72
22104;BME280;11218;48.886;9.426;2023-05-20T09:57:36;97887.63;;;20.83;53.10
22104;BME280;11218;48.886;9.426;2023-05-20T10:00:06;97878.44;;;20.96;53.31
22104;BME280;11218;48.886;9.426;2023-05-20T10:02:36;97874.25;;;20.90;53.18
22104;BME280;11218;48.886;9.426;2023-05-20T10:05:11;97872.50;;;20.94;52.96
22104;BME280;11218;48.886;9.426;2023-05-20T10:07:57;97863.00;;;20.91;53.57
22104;BME280;11218;48.886;9.426;2023-05-20T10:10:45;97861.22;;;20.87;55.08
22104;BME280;11218;48.886;9.426;2023-05-20T10:13:30;97858.97;;;20.97;54.06
22104;BME280;11218;48.886;9.426;2023-05-20T10:16:13;97849.16;;;21.40;52.83
22104;BME280;11218;48.886;9.426;2023-05-20T10:18:52;97846.75;;;21.85;51.65
22104;BME280;11218;48.886;9.426;2023-05-20T10:21:23;97852.94;;;22.20;49.58
22104;BME280;11218;48.886;9.426;2023-05-20T10:23:52;97855.97;;;22.27;50.69
22104;BME280;11218;48.886;9.426;2023-05-20T10:26:20;97842.78;;;22.20;49.00
22104;BME280;11218;48.886;9.426;2023-05-20T10:28:49;97847.66;;;22.06;49.97
22104;BME280;11218;48.886;9.426;2023-05-20T10:34:27;97844.63;;;21.90;50.64
22104;BME280;11218;48.886;9.426;2023-05-20T10:36:59;97844.78;;;21.94;50.16
22104;BME280;11218;48.886;9.426;2023-05-20T10:39:28;97836.03;;;22.09;50.91
22104;BME280;11218;48.886;9.426;2023-05-20T10:42:05;97839.22;;;22.20;49.35
22104;BME280;11218;48.886;9.426;2023-05-20T10:44:41;97833.75;;;22.20;49.42
22104;BME280;11218;48.886;9.426;2023-05-20T10:47:13;97838.56;;;22.23;48.91
22104;BME280;11218;48.886;9.426;2023-05-20T10:49:51;97836.75;;;22.27;49.69
22104;BME280;11218;48.886;9.426;2023-05-20T10:52:22;97838.41;;;22.19;49.31
22104;BME280;11218;48.886;9.426;2023-05-20T10:54:56;97833.06;;;22.23;50.51
22104;BME280;11218;48.886;9.426;2023-05-20T10:57:25;97833.66;;;22.28;49.64
22104;BME280;11218;48.886;9.426;2023-05-20T10:59:54;97827.78;;;22.18;49.77
22104;BME280;11218;48.886;9.426;2023-05-20T11:02:23;97819.91;;;22.37;49.68
22104;BME280;11218;48.886;9.426;2023-05-20T11:04:54;97806.41;;;22.74;49.95
22104;BME280;11218;48.886;9.426;2023-05-20T11:07:26;97807.88;;;23.13;48.78
22104;BME280;11218;48.886;9.426;2023-05-20T11:09:54;97801.22;;;23.14;47.76
22104;BME280;11218;48.886;9.426;2023-05-20T11:12:23;97809.00;;;23.12;47.33
22104;BME280;11218;48.886;9.426;2023-05-20T11:14:51;97806.47;;;23.07;47.73
22104;BME280;11218;48.886;9.426;2023-05-20T11:17:20;97805.56;;;22.82;47.19
22104;BME280;11218;48.886;9.426;2023-05-20T11:19:49;97806.16;;;22.67;48.44
22104;BME280;11218;48.886;9.426;2023-05-20T11:22:18;97804.31;;;22.79;48.27
22104;BME280;11218;48.886;9.426;2023-05-20T11:24:47;97791.31;;;22.88;47.01
22104;BME280;11218;48.886;9.426;2023-05-20T11:27:15;97789.56;;;22.84;48.47
22104;BME280;11218;48.886;9.426;2023-05-20T11:29:44;97786.25;;;22.70;48.12
22104;BME280;11218;48.886;9.426;2023-05-20T11:32:12;97781.09;;;22.68;47.79
22104;BME280;11218;48.886;9.426;2023-05-20T11:34:40;97781.69;;;22.82;47.95
22104;BME280;11218;48.886;9.426;2023-05-20T11:37:09;97788.22;;;22.90;47.87
22104;BME280;11218;48.886;9.426;2023-05-20T11:39:37;97783.03;;;23.09;47.79
22104;BME280;11218;48.886;9.426;2023-05-20T11:42:07;97779.13;;;23.10;48.35
22104;BME280;11218;48.886;9.426;2023-05-20T11:44:36;97769.06;;;23.14;47.36
22104;BME280;11218;48.886;9.426;2023-05-20T11:47:04;97780.47;;;23.04;47.58
22104;BME280;11218;48.886;9.426;2023-05-20T11:49:38;97771.03;;;23.14;47.66
22104;BME280;11218;48.886;9.426;2023-05-20T11:52:08;97760.53;;;23.61;46.88
22104;BME280;11218;48.886;9.426;2023-05-20T11:54:37;97762.00;;;23.58;45.77
22104;BME280;11218;48.886;9.426;2023-05-20T11:57:05;97759.94;;;23.55;47.66
22104;BME280;11218;48.886;9.426;2023-05-20T11:59:35;97762.25;;;23.33;46.01
22104;BME280;11218;48.886;9.426;2023-05-20T12:02:04;97746.06;;;23.07;46.70
22104;BME280;11218;48.886;9.426;2023-05-20T12:04:32;97758.19;;;23.06;46.91
22104;BME280;11218;48.886;9.426;2023-05-20T12:07:00;97757.09;;;23.31;46.48
22104;BME280;11218;48.886;9.426;2023-05-20T12:09:29;97758.78;;;23.81;46.81
22104;BME280;11218;48.886;9.426;2023-05-20T12:11:57;97752.84;;;24.28;48.13
22104;BME280;11218;48.886;9.426;2023-05-20T12:14:25;97747.94;;;24.61;44.78
22104;BME280;11218;48.886;9.426;2023-05-20T12:16:55;97747.94;;;24.61;44.77
22104;BME280;11218;48.886;9.426;2023-05-20T12:19:23;97750.97;;;24.44;44.35
22104;BME280;11218;48.886;9.426;2023-05-20T12:21:51;97749.50;;;24.34;44.08
22104;BME280;11218;48.886;9.426;2023-05-20T12:24:19;97748.69;;;24.09;45.03
22104;BME280;11218;48.886;9.426;2023-05-20T12:26:47;97749.06;;;23.83;44.03
22104;BME280;11218;48.886;9.426;2023-05-20T12:29:16;97741.16;;;23.82;44.69
22104;BME280;11218;48.886;9.426;2023-05-20T12:31:45;97739.44;;;23.77;45.66
22104;BME280;11218;48.886;9.426;2023-05-20T12:34:15;97739.19;;;23.95;47.00
22104;BME280;11218;48.886;9.426;2023-05-20T12:36:45;97735.41;;;23.99;45.62
22104;BME280;11218;48.886;9.426;2023-05-20T12:39:14;97741.59;;;24.08;46.57
22104;BME280;11218;48.886;9.426;2023-05-20T12:41:43;97741.16;;;24.06;44.28
22104;BME280;11218;48.886;9.426;2023-05-20T12:44:11;97736.69;;;24.02;45.11
22104;BME280;11218;48.886;9.426;2023-05-20T12:46:40;97739.88;;;24.04;44.09
22104;BME280;11218;48.886;9.426;2023-05-20T12:49:08;97730.38;;;23.89;44.57
22104;BME280;11218;48.886;9.426;2023-05-20T12:51:38;97726.13;;;23.91;45.14
22104;BME280;11218;48.886;9.426;2023-05-20T12:54:06;97736.56;;;23.98;45.89
22104;BME280;11218;48.886;9.426;2023-05-20T12:56:34;97726.00;;;24.12;46.77
22104;BME280;11218;48.886;9.426;2023-05-20T12:59:02;97723.94;;;24.34;45.56
22104;BME280;11218;48.886;9.426;2023-05-20T13:01:31;97718.25;;;24.54;46.07
22104;BME280;11218;48.886;9.426;2023-05-20T13:04:00;97723.00;;;24.42;45.00
22104;BME280;11218;48.886;9.426;2023-05-20T13:06:28;97725.97;;;24.49;43.59
22104;BME280;11218;48.886;9.426;2023-05-20T13:08:58;97728.19;;;24.31;43.65
22104;BME280;11218;48.886;9.426;2023-05-20T13:11:26;97729.91;;;24.36;44.91
22104;BME280;11218;48.886;9.426;2023-05-20T13:13:54;97722.56;;;24.40;44.49